sensor_id;sensor_type;location;lat;lon;timestamp;P1;P2;P0
44871;PMS7003;30602;51.060;17.226;2023-02-28T00:00:15;66;50;33
44871;PMS7003;30602;51.060;17.226;2023-02-28T00:07:56;47;36;26
44871;PMS7003;30602;51.060;17.226;2023-02-28T00:11:57;52;43;27
44871;PMS7003;30602;51.060;17.226;2023-02-28T00:16:09;50;40;24
44871;PMS7003;30602;51.060;17.226;2023-02-28T00:20:44;41;33;18
44871;PMS7003;30602;51.060;17.226;2023-02-28T00:24:54;49;37;23
44871;PMS7003;30602;51.060;17.226;2023-02-28T00:32:35;30;24;17
44871;PMS7003;30602;51.060;17.226;2023-02-28T00:36:13;38;31;18
44871;PMS7003;30602;51.060;17.226;2023-02-28T00:39:58;35;30;18
44871;PMS7003;30602;51.060;17.226;2023-02-28T00:43:56;46;37;23
44871;PMS7003;30602;51.060;17.226;2023-02-28T00:47:41;39;34;20
44871;PMS7003;30602;51.060;17.226;2023-02-28T00:51:30;43;38;21
44871;PMS7003;30602;51.060;17.226;2023-02-28T00:54:57;45;34;22
44871;PMS7003;30602;51.060;17.226;2023-02-28T00:58:27;41;31;20
44871;PMS7003;30602;51.060;17.226;2023-02-28T01:02:21;45;36;22
44871;PMS7003;30602;51.060;17.226;2023-02-28T01:05:44;39;33;21
44871;PMS7003;30602;51.060;17.226;2023-02-28T01:09:33;41;32;21
44871;PMS7003;30602;51.060;17.226;2023-02-28T01:13:17;38;28;20
44871;PMS7003;30602;51.060;17.226;2023-02-28T01:16:54;36;30;17
44871;PMS7003;30602;51.060;17.226;2023-02-28T01:20:24;42;33;23
44871;PMS7003;30602;51.060;17.226;2023-02-28T01:28:40;42;36;22
44871;PMS7003;30602;51.060;17.226;2023-02-28T01:32:43;37;29;15
44871;PMS7003;30602;51.060;17.226;2023-02-28T01:36:39;46;33;23
44871;PMS7003;30602;51.060;17.226;2023-02-28T01:39:59;46;34;23
44871;PMS7003;30602;51.060;17.226;2023-02-28T01:43:27;34;29;20
44871;PMS7003;30602;51.060;17.226;2023-02-28T01:47:38;36;32;21
44871;PMS7003;30602;51.060;17.226;2023-02-28T01:55:28;35;31;21
44871;PMS7003;30602;51.060;17.226;2023-02-28T01:59:36;44;35;21
44871;PMS7003;30602;51.060;17.226;2023-02-28T02:03:29;39;32;20
44871;PMS7003;30602;51.060;17.226;2023-02-28T02:07:41;49;36;22
44871;PMS7003;30602;51.060;17.226;2023-02-28T02:11:07;37;27;18
44871;PMS7003;30602;51.060;17.226;2023-02-28T02:25:53;35;30;17
44871;PMS7003;30602;51.060;17.226;2023-02-28T02:42:05;40;33;20
44871;PMS7003;30602;51.060;17.226;2023-02-28T02:46:43;32;27;18
44871;PMS7003;30602;51.060;17.226;2023-02-28T02:50:31;35;29;19
44871;PMS7003;30602;51.060;17.226;2023-02-28T02:54:27;39;31;18
44871;PMS7003;30602;51.060;17.226;2023-02-28T03:01:57;32;27;17
44871;PMS7003;30602;51.060;17.226;2023-02-28T03:05:46;32;27;17
44871;PMS7003;30602;51.060;17.226;2023-02-28T03:09:08;31;28;18
44871;PMS7003;30602;51.060;17.226;2023-02-28T03:12:51;35;29;20
44871;PMS7003;30602;51.060;17.226;2023-02-28T03:28:43;26;22;14
44871;PMS7003;30602;51.060;17.226;2023-02-28T03:32:38;31;26;15
44871;PMS7003;30602;51.060;17.226;2023-02-28T03:36:15;25;22;15
44871;PMS7003;30602;51.060;17.226;2023-02-28T03:40:01;19;16;11
44871;PMS7003;30602;51.060;17.226;2023-02-28T03:43:53;29;22;15
44871;PMS7003;30602;51.060;17.226;2023-02-28T03:48:02;31;25;16
44871;PMS7003;30602;51.060;17.226;2023-02-28T03:52:05;26;22;16
44871;PMS7003;30602;51.060;17.226;2023-02-28T03:56:13;28;24;16
44871;PMS7003;30602;51.060;17.226;2023-02-28T04:03:54;36;26;16
44871;PMS7003;30602;51.060;17.226;2023-02-28T04:07:47;30;20;15
44871;PMS7003;30602;51.060;17.226;2023-02-28T04:11:38;29;26;17
44871;PMS7003;30602;51.060;17.226;2023-02-28T04:15:31;35;28;17
44871;PMS7003;30602;51.060;17.226;2023-02-28T04:19:11;28;22;16
44871;PMS7003;30602;51.060;17.226;2023-02-28T04:23:05;31;24;18
44871;PMS7003;30602;51.060;17.226;2023-02-28T04:26:55;34;26;16
44871;PMS7003;30602;51.060;17.226;2023-02-28T04:30:20;34;27;17
44871;PMS7003;30602;51.060;17.226;2023-02-28T04:33:51;30;26;15
44871;PMS7003;30602;51.060;17.226;2023-02-28T04:38:01;31;26;15
44871;PMS7003;30602;51.060;17.226;2023-02-28T04:41:45;31;26;16
44871;PMS7003;30602;51.060;17.226;2023-02-28T04:45:43;35;27;16
44871;PMS7003;30602;51.060;17.226;2023-02-28T04:49:13;40;33;19
44871;PMS7003;30602;51.060;17.226;2023-02-28T04:52:58;30;27;18
44871;PMS7003;30602;51.060;17.226;2023-02-28T04:56:42;25;22;14
44871;PMS7003;30602;51.060;17.226;2023-02-28T05:00:38;25;22;17
44871;PMS7003;30602;51.060;17.226;2023-02-28T05:04:37;39;30;19
44871;PMS7003;30602;51.060;17.226;2023-02-28T05:08:34;39;32;20
44871;PMS7003;30602;51.060;17.226;2023-02-28T05:12:26;44;33;19
44871;PMS7003;30602;51.060;17.226;2023-02-28T05:16:43;37;29;18
44871;PMS7003;30602;51.060;17.226;2023-02-28T05:20:25;30;24;15
44871;PMS7003;30602;51.060;17.226;2023-02-28T05:24:19;36;30;20
44871;PMS7003;30602;51.060;17.226;2023-02-28T05:28:49;34;28;19
44871;PMS7003;30602;51.060;17.226;2023-02-28T05:32:49;30;29;19
44871;PMS7003;30602;51.060;17.226;2023-02-28T05:36:59;43;32;20
44871;PMS7003;30602;51.060;17.226;2023-02-28T05:41:32;34;31;19
44871;PMS7003;30602;51.060;17.226;2023-02-28T05:45:12;32;27;18
44871;PMS7003;30602;51.060;17.226;2023-02-28T05:49:05;22;14;9
44871;PMS7003;30602;51.060;17.226;2023-02-28T05:52:41;33;30;21
44871;PMS7003;30602;51.060;17.226;2023-02-28T05:56:17;37;31;18
44871;PMS7003;30602;51.060;17.226;2023-02-28T05:59:50;40;35;19
44871;PMS7003;30602;51.060;17.226;2023-02-28T06:03:37;40;31;18
44871;PMS7003;30602;51.060;17.226;2023-02-28T06:07:53;37;31;18
44871;PMS7003;30602;51.060;17.226;2023-02-28T06:11:30;40;31;20
44871;PMS7003;30602;51.060;17.226;2023-02-28T06:14:51;36;31;19
44871;PMS7003;30602;51.060;17.226;2023-02-28T06:18:46;40;30;20
44871;PMS7003;30602;51.060;17.226;2023-02-28T06:22:26;36;31;19
44871;PMS7003;30602;51.060;17.226;2023-02-28T06:26:08;35;28;18
44871;PMS7003;30602;51.060;17.226;2023-02-28T06:29:48;39;26;16
44871;PMS7003;30602;51.060;17.226;2023-02-28T06:33:18;38;31;18
44871;PMS7003;30602;51.060;17.226;2023-02-28T06:37:11;29;25;18
44871;PMS7003;30602;51.060;17.226;2023-02-28T06:41:04;25;22;16
44871;PMS7003;30602;51.060;17.226;2023-02-28T06:44:30;38;33;18
44871;PMS7003;30602;51.060;17.226;2023-02-28T06:48:28;32;27;17
44871;PMS7003;30602;51.060;17.226;2023-02-28T06:56:23;25;24;16
44871;PMS7003;30602;51.060;17.226;2023-02-28T07:00:06;35;27;17
44871;PMS7003;30602;51.060;17.226;2023-02-28T07:03:42;29;25;15
44871;PMS7003;30602;51.060;17.226;2023-02-28T07:07:08;25;22;15
44871;PMS7003;30602;51.060;17.226;2023-02-28T07:10:42;24;21;14
44871;PMS7003;30602;51.060;17.226;2023-02-28T07:14:08;33;25;16
44871;PMS7003;30602;51.060;17.226;2023-02-28T07:17:30;22;16;12
44871;PMS7003;30602;51.060;17.226;2023-02-28T07:25:05;28;23;14
44871;PMS7003;30602;51.060;17.226;2023-02-28T07:28:37;36;26;16
44871;PMS7003;30602;51.060;17.226;2023-02-28T07:32:28;28;21;15
44871;PMS7003;30602;51.060;17.226;2023-02-28T07:36:31;27;22;14
44871;PMS7003;30602;51.060;17.226;2023-02-28T07:39:49;24;21;13
44871;PMS7003;30602;51.060;17.226;2023-02-28T07:43:52;29;26;15
44871;PMS7003;30602;51.060;17.226;2023-02-28T07:47:38;28;21;14
44871;PMS7003;30602;51.060;17.226;2023-02-28T07:51:24;21;16;11
44871;PMS7003;30602;51.060;17.226;2023-02-28T07:55:07;21;17;12
44871;PMS7003;30602;51.060;17.226;2023-02-28T07:58:33;22;19;12
44871;PMS7003;30602;51.060;17.226;2023-02-28T08:02:16;23;18;14
44871;PMS7003;30602;51.060;17.226;2023-02-28T08:06:07;15;14;9
44871;PMS7003;30602;51.060;17.226;2023-02-28T08:09:35;16;15;10
44871;PMS7003;30602;51.060;17.226;2023-02-28T08:12:54;18;17;12
44871;PMS7003;30602;51.060;17.226;2023-02-28T08:16:16;24;17;13
44871;PMS7003;30602;51.060;17.226;2023-02-28T08:19:59;21;15;11
44871;PMS7003;30602;51.060;17.226;2023-02-28T08:23:20;16;14;11
44871;PMS7003;30602;51.060;17.226;2023-02-28T08:27:12;17;14;9
44871;PMS7003;30602;51.060;17.226;2023-02-28T08:31:14;14;11;9
44871;PMS7003;30602;51.060;17.226;2023-02-28T08:34:41;22;16;11
44871;PMS7003;30602;51.060;17.226;2023-02-28T08:38:53;14;12;9
44871;PMS7003;30602;51.060;17.226;2023-02-28T08:42:14;13;11;8
44871;PMS7003;30602;51.060;17.226;2023-02-28T08:45:57;12;9;7
44871;PMS7003;30602;51.060;17.226;2023-02-28T08:49:38;15;11;9
44871;PMS7003;30602;51.060;17.226;2023-02-28T08:53:00;12;11;8
44871;PMS7003;30602;51.060;17.226;2023-02-28T08:56:54;16;12;9
44871;PMS7003;30602;51.060;17.226;2023-02-28T09:00:48;16;13;9
44871;PMS7003;30602;51.060;17.226;2023-02-28T09:04:11;17;13;10
44871;PMS7003;30602;51.060;17.226;2023-02-28T09:07:45;16;14;9
44871;PMS7003;30602;51.060;17.226;2023-02-28T09:11:09;14;12;9
44871;PMS7003;30602;51.060;17.226;2023-02-28T09:14:28;20;17;10
44871;PMS7003;30602;51.060;17.226;2023-02-28T09:18:26;18;13;10
44871;PMS7003;30602;51.060;17.226;2023-02-28T09:22:08;15;13;10
44871;PMS7003;30602;51.060;17.226;2023-02-28T09:25:54;17;14;12
44871;PMS7003;30602;51.060;17.226;2023-02-28T09:29:37;19;14;10
44871;PMS7003;30602;51.060;17.226;2023-02-28T09:34:01;14;12;9
44871;PMS7003;30602;51.060;17.226;2023-02-28T09:42:04;10;10;8
44871;PMS7003;30602;51.060;17.226;2023-02-28T09:49:40;9;8;7
44871;PMS7003;30602;51.060;17.226;2023-02-28T09:53:48;10;9;8
44871;PMS7003;30602;51.060;17.226;2023-02-28T10:05:22;16;13;10
44871;PMS7003;30602;51.060;17.226;2023-02-28T10:12:51;14;12;10
44871;PMS7003;30602;51.060;17.226;2023-02-28T10:16:46;15;14;8
44871;PMS7003;30602;51.060;17.226;2023-02-28T10:24:41;13;10;8
44871;PMS7003;30602;51.060;17.226;2023-02-28T10:29:08;14;13;8
44871;PMS7003;30602;51.060;17.226;2023-02-28T10:33:00;13;9;6
44871;PMS7003;30602;51.060;17.226;2023-02-28T10:36:23;15;14;8
44871;PMS7003;30602;51.060;17.226;2023-02-28T10:40:29;16;15;10
44871;PMS7003;30602;51.060;17.226;2023-02-28T10:48:30;19;12;9
44871;PMS7003;30602;51.060;17.226;2023-02-28T11:07:19;11;11;8
44871;PMS7003;30602;51.060;17.226;2023-02-28T11:11:03;12;10;6
44871;PMS7003;30602;51.060;17.226;2023-02-28T11:22:27;15;14;9
44871;PMS7003;30602;51.060;17.226;2023-02-28T11:25:52;16;13;8
44871;PMS7003;30602;51.060;17.226;2023-02-28T11:29:26;15;15;10
44871;PMS7003;30602;51.060;17.226;2023-02-28T11:32:48;14;11;9
44871;PMS7003;30602;51.060;17.226;2023-02-28T11:36:29;13;10;8
44871;PMS7003;30602;51.060;17.226;2023-02-28T11:44:31;13;11;8
44871;PMS7003;30602;51.060;17.226;2023-02-28T11:48:32;14;11;8
44871;PMS7003;30602;51.060;17.226;2023-02-28T11:52:10;13;11;7
44871;PMS7003;30602;51.060;17.226;2023-02-28T12:12:22;15;12;9
44871;PMS7003;30602;51.060;17.226;2023-02-28T12:20:08;19;16;11
44871;PMS7003;30602;51.060;17.226;2023-02-28T12:24:14;17;14;10
44871;PMS7003;30602;51.060;17.226;2023-02-28T12:27:42;19;13;9
44871;PMS7003;30602;51.060;17.226;2023-02-28T12:35:21;20;16;13
44871;PMS7003;30602;51.060;17.226;2023-02-28T12:39:14;21;20;13
44871;PMS7003;30602;51.060;17.226;2023-02-28T12:43:13;20;18;13
44871;PMS7003;30602;51.060;17.226;2023-02-28T12:47:28;25;23;13
44871;PMS7003;30602;51.060;17.226;2023-02-28T12:50:53;20;20;14
44871;PMS7003;30602;51.060;17.226;2023-02-28T13:10:14;30;22;15
44871;PMS7003;30602;51.060;17.226;2023-02-28T13:14:04;27;21;15
44871;PMS7003;30602;51.060;17.226;2023-02-28T13:17:55;22;20;14
44871;PMS7003;30602;51.060;17.226;2023-02-28T13:21:47;29;25;17
44871;PMS7003;30602;51.060;17.226;2023-02-28T13:29:32;30;22;15
44871;PMS7003;30602;51.060;17.226;2023-02-28T13:36:44;33;27;16
44871;PMS7003;30602;51.060;17.226;2023-02-28T13:40:41;29;24;16
44871;PMS7003;30602;51.060;17.226;2023-02-28T14:05:33;30;20;14
44871;PMS7003;30602;51.060;17.226;2023-02-28T14:09:44;36;31;19
44871;PMS7003;30602;51.060;17.226;2023-02-28T14:17:36;35;30;16
44871;PMS7003;30602;51.060;17.226;2023-02-28T14:37:41;27;24;17
44871;PMS7003;30602;51.060;17.226;2023-02-28T14:41:40;30;24;15
44871;PMS7003;30602;51.060;17.226;2023-02-28T14:45:48;25;22;17
44871;PMS7003;30602;51.060;17.226;2023-02-28T14:53:15;22;16;12
44871;PMS7003;30602;51.060;17.226;2023-02-28T14:57:00;21;17;13
44871;PMS7003;30602;51.060;17.226;2023-02-28T15:00:56;23;20;15
44871;PMS7003;30602;51.060;17.226;2023-02-28T15:09:09;28;25;16
44871;PMS7003;30602;51.060;17.226;2023-02-28T15:13:21;22;20;14
44871;PMS7003;30602;51.060;17.226;2023-02-28T15:17:00;29;19;14
44871;PMS7003;30602;51.060;17.226;2023-02-28T15:21:25;28;23;15
44871;PMS7003;30602;51.060;17.226;2023-02-28T15:28:59;23;17;12
44871;PMS7003;30602;51.060;17.226;2023-02-28T15:32:43;24;20;14
44871;PMS7003;30602;51.060;17.226;2023-02-28T15:36:16;23;18;13
44871;PMS7003;30602;51.060;17.226;2023-02-28T15:43:36;27;19;14
44871;PMS7003;30602;51.060;17.226;2023-02-28T15:51:56;24;19;14
44871;PMS7003;30602;51.060;17.226;2023-02-28T16:00:02;21;17;12
44871;PMS7003;30602;51.060;17.226;2023-02-28T16:04:18;27;17;12
44871;PMS7003;30602;51.060;17.226;2023-02-28T16:08:18;35;27;15
44871;PMS7003;30602;51.060;17.226;2023-02-28T16:11:59;25;24;17
44871;PMS7003;30602;51.060;17.226;2023-02-28T16:16:01;23;19;13
44871;PMS7003;30602;51.060;17.226;2023-02-28T16:20:25;28;22;13
44871;PMS7003;30602;51.060;17.226;2023-02-28T16:24:06;34;28;17
44871;PMS7003;30602;51.060;17.226;2023-02-28T16:27:59;27;25;16
44871;PMS7003;30602;51.060;17.226;2023-02-28T16:31:44;33;30;18
44871;PMS7003;30602;51.060;17.226;2023-02-28T16:39:17;44;34;20
44871;PMS7003;30602;51.060;17.226;2023-02-28T16:42:59;41;36;21
44871;PMS7003;30602;51.060;17.226;2023-02-28T16:46:33;44;35;23
44871;PMS7003;30602;51.060;17.226;2023-02-28T16:50:22;34;32;21
44871;PMS7003;30602;51.060;17.226;2023-02-28T16:54:13;31;25;15
44871;PMS7003;30602;51.060;17.226;2023-02-28T16:57:56;34;28;17
44871;PMS7003;30602;51.060;17.226;2023-02-28T17:01:23;31;25;18
44871;PMS7003;30602;51.060;17.226;2023-02-28T17:05:21;34;25;17
44871;PMS7003;30602;51.060;17.226;2023-02-28T17:08:49;32;28;18
44871;PMS7003;30602;51.060;17.226;2023-02-28T17:12:13;37;32;19
44871;PMS7003;30602;51.060;17.226;2023-02-28T17:16:08;36;33;19
44871;PMS7003;30602;51.060;17.226;2023-02-28T17:19:46;40;33;17
44871;PMS7003;30602;51.060;17.226;2023-02-28T17:23:16;32;29;20
44871;PMS7003;30602;51.060;17.226;2023-02-28T17:26:58;37;33;18
44871;PMS7003;30602;51.060;17.226;2023-02-28T17:30:38;37;33;19
44871;PMS7003;30602;51.060;17.226;2023-02-28T17:34:04;38;29;18
44871;PMS7003;30602;51.060;17.226;2023-02-28T17:37:31;42;33;21
44871;PMS7003;30602;51.060;17.226;2023-02-28T17:41:20;41;33;19
44871;PMS7003;30602;51.060;17.226;2023-02-28T17:44:46;37;33;21
44871;PMS7003;30602;51.060;17.226;2023-02-28T17:48:11;36;32;19
44871;PMS7003;30602;51.060;17.226;2023-02-28T17:51:50;38;34;22
44871;PMS7003;30602;51.060;17.226;2023-02-28T17:55:11;40;28;17
44871;PMS7003;30602;51.060;17.226;2023-02-28T17:59:08;46;37;21
44871;PMS7003;30602;51.060;17.226;2023-02-28T18:02:32;35;26;18
44871;PMS7003;30602;51.060;17.226;2023-02-28T18:06:22;51;38;22
44871;PMS7003;30602;51.060;17.226;2023-02-28T18:10:12;40;30;17
44871;PMS7003;30602;51.060;17.226;2023-02-28T18:13:46;47;38;20
44871;PMS7003;30602;51.060;17.226;2023-02-28T18:17:53;53;43;25
44871;PMS7003;30602;51.060;17.226;2023-02-28T18:21:15;49;42;26
44871;PMS7003;30602;51.060;17.226;2023-02-28T18:24:59;62;46;30
44871;PMS7003;30602;51.060;17.226;2023-02-28T18:32:59;47;37;26
44871;PMS7003;30602;51.060;17.226;2023-02-28T18:36:57;57;45;27
44871;PMS7003;30602;51.060;17.226;2023-02-28T18:41:02;58;46;29
44871;PMS7003;30602;51.060;17.226;2023-02-28T18:44:45;64;48;32
44871;PMS7003;30602;51.060;17.226;2023-02-28T18:48:08;64;50;31
44871;PMS7003;30602;51.060;17.226;2023-02-28T18:51:54;63;49;29
44871;PMS7003;30602;51.060;17.226;2023-02-28T18:55:50;62;48;30
44871;PMS7003;30602;51.060;17.226;2023-02-28T18:59:12;61;47;30
44871;PMS7003;30602;51.060;17.226;2023-02-28T19:02:44;64;49;30
44871;PMS7003;30602;51.060;17.226;2023-02-28T19:06:16;67;47;30
44871;PMS7003;30602;51.060;17.226;2023-02-28T19:10:19;76;53;31
44871;PMS7003;30602;51.060;17.226;2023-02-28T19:13:43;76;55;33
44871;PMS7003;30602;51.060;17.226;2023-02-28T19:21:50;79;58;34
44871;PMS7003;30602;51.060;17.226;2023-02-28T19:25:26;87;63;38
44871;PMS7003;30602;51.060;17.226;2023-02-28T19:29:23;75;56;32
44871;PMS7003;30602;51.060;17.226;2023-02-28T19:33:08;67;50;31
44871;PMS7003;30602;51.060;17.226;2023-02-28T19:36:53;66;52;31
44871;PMS7003;30602;51.060;17.226;2023-02-28T19:40:41;71;54;34
44871;PMS7003;30602;51.060;17.226;2023-02-28T19:44:17;76;56;32
44871;PMS7003;30602;51.060;17.226;2023-02-28T19:47:45;75;55;33
44871;PMS7003;30602;51.060;17.226;2023-02-28T19:51:43;71;54;31
44871;PMS7003;30602;51.060;17.226;2023-02-28T19:55:32;77;59;35
44871;PMS7003;30602;51.060;17.226;2023-02-28T19:59:03;78;60;36
44871;PMS7003;30602;51.060;17.226;2023-02-28T20:02:28;86;65;39
44871;PMS7003;30602;51.060;17.226;2023-02-28T20:06:14;73;56;33
44871;PMS7003;30602;51.060;17.226;2023-02-28T20:09:58;73;55;33
44871;PMS7003;30602;51.060;17.226;2023-02-28T20:13:27;68;54;32
44871;PMS7003;30602;51.060;17.226;2023-02-28T20:17:15;67;53;32
44871;PMS7003;30602;51.060;17.226;2023-02-28T20:21:18;67;49;30
44871;PMS7003;30602;51.060;17.226;2023-02-28T20:25:19;65;51;31
44871;PMS7003;30602;51.060;17.226;2023-02-28T20:29:07;68;51;31
44871;PMS7003;30602;51.060;17.226;2023-02-28T20:32:53;69;52;32
44871;PMS7003;30602;51.060;17.226;2023-02-28T20:36:19;60;51;31
44871;PMS7003;30602;51.060;17.226;2023-02-28T20:39:45;55;47;28
44871;PMS7003;30602;51.060;17.226;2023-02-28T20:43:35;74;58;35
44871;PMS7003;30602;51.060;17.226;2023-02-28T20:47:14;72;56;34
44871;PMS7003;30602;51.060;17.226;2023-02-28T20:55:15;68;51;30
44871;PMS7003;30602;51.060;17.226;2023-02-28T20:59:32;58;46;28
44871;PMS7003;30602;51.060;17.226;2023-02-28T21:04:07;67;50;30
44871;PMS7003;30602;51.060;17.226;2023-02-28T21:07:57;61;51;30
44871;PMS7003;30602;51.060;17.226;2023-02-28T21:11:43;74;52;31
44871;PMS7003;30602;51.060;17.226;2023-02-28T21:15:29;65;52;32
44871;PMS7003;30602;51.060;17.226;2023-02-28T21:19:24;59;48;28
44871;PMS7003;30602;51.060;17.226;2023-02-28T21:23:13;67;51;29
44871;PMS7003;30602;51.060;17.226;2023-02-28T21:26:53;70;52;31
44871;PMS7003;30602;51.060;17.226;2023-02-28T21:30:39;71;51;32
44871;PMS7003;30602;51.060;17.226;2023-02-28T21:36:20;62;48;31
44871;PMS7003;30602;51.060;17.226;2023-02-28T21:40:05;60;50;31
44871;PMS7003;30602;51.060;17.226;2023-02-28T21:44:05;56;46;28
44871;PMS7003;30602;51.060;17.226;2023-02-28T21:47:55;62;46;30
44871;PMS7003;30602;51.060;17.226;2023-02-28T21:51:42;69;49;30
44871;PMS7003;30602;51.060;17.226;2023-02-28T21:55:34;67;50;32
44871;PMS7003;30602;51.060;17.226;2023-02-28T21:59:00;64;50;28
44871;PMS7003;30602;51.060;17.226;2023-02-28T22:02:28;70;54;31
44871;PMS7003;30602;51.060;17.226;2023-02-28T22:06:12;63;48;32
44871;PMS7003;30602;51.060;17.226;2023-02-28T22:09:49;71;54;31
44871;PMS7003;30602;51.060;17.226;2023-02-28T22:13:50;70;52;31
44871;PMS7003;30602;51.060;17.226;2023-02-28T22:17:36;73;52;32
44871;PMS7003;30602;51.060;17.226;2023-02-28T22:21:15;69;53;31
44871;PMS7003;30602;51.060;17.226;2023-02-28T22:24:54;74;54;31
44871;PMS7003;30602;51.060;17.226;2023-02-28T22:28:21;78;59;36
44871;PMS7003;30602;51.060;17.226;2023-02-28T22:31:43;80;57;36
44871;PMS7003;30602;51.060;17.226;2023-02-28T22:35:17;74;54;34
44871;PMS7003;30602;51.060;17.226;2023-02-28T22:38:57;75;58;33
44871;PMS7003;30602;51.060;17.226;2023-02-28T22:42:48;76;58;36
44871;PMS7003;30602;51.060;17.226;2023-02-28T22:46:32;75;57;35
44871;PMS7003;30602;51.060;17.226;2023-02-28T22:50:01;77;58;34
44871;PMS7003;30602;51.060;17.226;2023-02-28T22:53:41;78;57;35
44871;PMS7003;30602;51.060;17.226;2023-02-28T22:57:11;70;54;33
44871;PMS7003;30602;51.060;17.226;2023-02-28T23:01:37;75;53;33
44871;PMS7003;30602;51.060;17.226;2023-02-28T23:05:22;77;54;32
44871;PMS7003;30602;51.060;17.226;2023-02-28T23:09:31;83;60;36
44871;PMS7003;30602;51.060;17.226;2023-02-28T23:13:35;81;60;36
44871;PMS7003;30602;51.060;17.226;2023-02-28T23:17:33;84;59;35
44871;PMS7003;30602;51.060;17.226;2023-02-28T23:21:44;81;59;38
44871;PMS7003;30602;51.060;17.226;2023-02-28T23:25:31;79;58;35
44871;PMS7003;30602;51.060;17.226;2023-02-28T23:28:56;92;65;39
44871;PMS7003;30602;51.060;17.226;2023-02-28T23:32:54;81;60;37
44871;PMS7003;30602;51.060;17.226;2023-02-28T23:36:26;81;62;36
44871;PMS7003;30602;51.060;17.226;2023-02-28T23:40:13;76;59;36
44871;PMS7003;30602;51.060;17.226;2023-02-28T23:43:39;90;68;42
44871;PMS7003;30602;51.060;17.226;2023-02-28T23:47:06;93;68;40
44871;PMS7003;30602;51.060;17.226;2023-02-28T23:51:13;88;66;39
44871;PMS7003;30602;51.060;17.226;2023-02-28T23:55:07;76;56;36
44871;PMS7003;30602;51.060;17.226;2023-02-28T23:58:53;82;61;37
